Terminal Aerodrome Forecast
Issued by NWS

Home | Current Version | Previous Version | Text Only | Print | Product List | Glossary On
Versions: 1 2 3 4 5 6 7 8 9 10 11 12 13 14 15 16 17 18 19 20 21 22 23 24 25 26 27 28
895
FTUS44 KMAF 221300 AAA
TAFCNM
TAF AMD
KCNM 221305Z 2213/2312 01004KT 6SM BR FEW006 OVC015
     FM221500 12006KT P6SM BKN015
     FM222100 15011KT P6SM SCT030 SCT250
     FM230200 13015KT P6SM BKN020 OVC250=

USA.gov is the U.S. government's official web portal to all federal, state and local government web resources and services.